sensor_id;sensor_type;location;lat;lon;timestamp;P1;durP1;ratioP1;P2;durP2;ratioP2
8327;SDS011;4201;48.754;8.864;2022-08-21T00:01:53;7.17;;;3.53;;
8327;SDS011;4201;48.754;8.864;2022-08-21T00:04:19;5.30;;;3.10;;
8327;SDS011;4201;48.754;8.864;2022-08-21T00:06:46;5.13;;;3.33;;
8327;SDS011;4201;48.754;8.864;2022-08-21T00:09:12;6.73;;;3.53;;
8327;SDS011;4201;48.754;8.864;2022-08-21T00:11:40;8.90;;;3.67;;
8327;SDS011;4201;48.754;8.864;2022-08-21T00:14:08;9.93;;;4.13;;
8327;SDS011;4201;48.754;8.864;2022-08-21T00:16:35;6.50;;;4.37;;
8327;SDS011;4201;48.754;8.864;2022-08-21T00:19:02;7.00;;;4.17;;
8327;SDS011;4201;48.754;8.864;2022-08-21T00:21:28;7.50;;;4.10;;
8327;SDS011;4201;48.754;8.864;2022-08-21T00:23:55;8.27;;;5.50;;
8327;SDS011;4201;48.754;8.864;2022-08-21T00:26:21;7.23;;;4.83;;
8327;SDS011;4201;48.754;8.864;2022-08-21T00:28:49;10.63;;;4.77;;
8327;SDS011;4201;48.754;8.864;2022-08-21T00:31:15;7.10;;;4.87;;
8327;SDS011;4201;48.754;8.864;2022-08-21T00:33:43;8.83;;;4.47;;
8327;SDS011;4201;48.754;8.864;2022-08-21T00:36:10;7.97;;;4.70;;
8327;SDS011;4201;48.754;8.864;2022-08-21T00:38:36;8.77;;;4.53;;
8327;SDS011;4201;48.754;8.864;2022-08-21T00:41:04;6.13;;;4.80;;
8327;SDS011;4201;48.754;8.864;2022-08-21T00:43:32;7.70;;;5.17;;
8327;SDS011;4201;48.754;8.864;2022-08-21T00:46:00;10.77;;;4.60;;
8327;SDS011;4201;48.754;8.864;2022-08-21T00:48:27;9.50;;;4.80;;
8327;SDS011;4201;48.754;8.864;2022-08-21T00:50:54;6.67;;;4.30;;
8327;SDS011;4201;48.754;8.864;2022-08-21T00:53:21;10.47;;;4.50;;
8327;SDS011;4201;48.754;8.864;2022-08-21T00:55:48;5.80;;;4.20;;
8327;SDS011;4201;48.754;8.864;2022-08-21T00:58:14;6.57;;;4.50;;
8327;SDS011;4201;48.754;8.864;2022-08-21T01:00:42;9.23;;;5.50;;
8327;SDS011;4201;48.754;8.864;2022-08-21T01:03:11;7.23;;;4.30;;
8327;SDS011;4201;48.754;8.864;2022-08-21T01:05:39;7.20;;;4.37;;
8327;SDS011;4201;48.754;8.864;2022-08-21T01:08:05;7.40;;;4.83;;
8327;SDS011;4201;48.754;8.864;2022-08-21T01:10:32;10.03;;;4.47;;
8327;SDS011;4201;48.754;8.864;2022-08-21T01:13:00;9.53;;;5.60;;
8327;SDS011;4201;48.754;8.864;2022-08-21T01:15:28;6.40;;;4.00;;
8327;SDS011;4201;48.754;8.864;2022-08-21T01:17:56;5.93;;;4.30;;
8327;SDS011;4201;48.754;8.864;2022-08-21T01:20:24;7.57;;;3.97;;
8327;SDS011;4201;48.754;8.864;2022-08-21T01:22:52;8.47;;;4.87;;
8327;SDS011;4201;48.754;8.864;2022-08-21T01:25:18;6.07;;;4.57;;
8327;SDS011;4201;48.754;8.864;2022-08-21T01:27:45;8.17;;;4.80;;
8327;SDS011;4201;48.754;8.864;2022-08-21T01:30:13;6.93;;;4.67;;
8327;SDS011;4201;48.754;8.864;2022-08-21T01:32:40;6.60;;;5.30;;
8327;SDS011;4201;48.754;8.864;2022-08-21T01:35:07;7.93;;;4.53;;
8327;SDS011;4201;48.754;8.864;2022-08-21T01:37:34;8.53;;;5.03;;
8327;SDS011;4201;48.754;8.864;2022-08-21T01:40:02;7.40;;;4.73;;
8327;SDS011;4201;48.754;8.864;2022-08-21T01:42:28;6.80;;;4.50;;
8327;SDS011;4201;48.754;8.864;2022-08-21T01:44:55;6.60;;;4.73;;
8327;SDS011;4201;48.754;8.864;2022-08-21T01:47:21;7.07;;;4.83;;
8327;SDS011;4201;48.754;8.864;2022-08-21T01:49:48;8.90;;;4.17;;
8327;SDS011;4201;48.754;8.864;2022-08-21T01:52:14;7.13;;;4.63;;
8327;SDS011;4201;48.754;8.864;2022-08-21T01:54:41;6.37;;;5.10;;
8327;SDS011;4201;48.754;8.864;2022-08-21T01:57:08;7.43;;;4.40;;
8327;SDS011;4201;48.754;8.864;2022-08-21T01:59:35;7.67;;;4.70;;
8327;SDS011;4201;48.754;8.864;2022-08-21T02:02:02;9.20;;;4.70;;
8327;SDS011;4201;48.754;8.864;2022-08-21T02:04:28;10.17;;;5.20;;
8327;SDS011;4201;48.754;8.864;2022-08-21T02:06:55;7.40;;;4.90;;
8327;SDS011;4201;48.754;8.864;2022-08-21T02:09:21;10.83;;;6.13;;
8327;SDS011;4201;48.754;8.864;2022-08-21T02:11:48;10.53;;;5.93;;
8327;SDS011;4201;48.754;8.864;2022-08-21T02:14:16;6.37;;;5.50;;
8327;SDS011;4201;48.754;8.864;2022-08-21T02:16:42;7.23;;;5.47;;
8327;SDS011;4201;48.754;8.864;2022-08-21T02:19:09;11.53;;;6.50;;
8327;SDS011;4201;48.754;8.864;2022-08-21T02:21:36;8.33;;;5.80;;
8327;SDS011;4201;48.754;8.864;2022-08-21T02:24:02;7.70;;;5.90;;
8327;SDS011;4201;48.754;8.864;2022-08-21T02:26:29;6.17;;;5.47;;
8327;SDS011;4201;48.754;8.864;2022-08-21T02:28:55;7.20;;;4.93;;
8327;SDS011;4201;48.754;8.864;2022-08-21T02:31:22;11.57;;;5.73;;
8327;SDS011;4201;48.754;8.864;2022-08-21T02:33:49;9.50;;;4.70;;
8327;SDS011;4201;48.754;8.864;2022-08-21T02:36:16;9.60;;;4.57;;
8327;SDS011;4201;48.754;8.864;2022-08-21T02:38:42;6.73;;;5.17;;
8327;SDS011;4201;48.754;8.864;2022-08-21T02:41:09;7.83;;;6.03;;
8327;SDS011;4201;48.754;8.864;2022-08-21T02:43:36;8.77;;;5.10;;
8327;SDS011;4201;48.754;8.864;2022-08-21T02:46:03;8.17;;;5.23;;
8327;SDS011;4201;48.754;8.864;2022-08-21T02:48:32;7.30;;;4.70;;
8327;SDS011;4201;48.754;8.864;2022-08-21T02:51:00;11.63;;;5.90;;
8327;SDS011;4201;48.754;8.864;2022-08-21T02:53:27;8.13;;;4.77;;
8327;SDS011;4201;48.754;8.864;2022-08-21T02:55:53;7.80;;;5.23;;
8327;SDS011;4201;48.754;8.864;2022-08-21T02:58:21;8.97;;;5.80;;
8327;SDS011;4201;48.754;8.864;2022-08-21T03:00:48;8.97;;;5.60;;
8327;SDS011;4201;48.754;8.864;2022-08-21T03:03:14;8.20;;;5.63;;
8327;SDS011;4201;48.754;8.864;2022-08-21T03:05:42;10.60;;;6.20;;
8327;SDS011;4201;48.754;8.864;2022-08-21T03:08:09;12.07;;;5.67;;
8327;SDS011;4201;48.754;8.864;2022-08-21T03:10:36;11.43;;;6.40;;
8327;SDS011;4201;48.754;8.864;2022-08-21T03:13:04;8.13;;;5.60;;
8327;SDS011;4201;48.754;8.864;2022-08-21T03:15:31;7.40;;;5.07;;
8327;SDS011;4201;48.754;8.864;2022-08-21T03:17:57;10.37;;;5.70;;
8327;SDS011;4201;48.754;8.864;2022-08-21T03:20:25;11.40;;;5.17;;
8327;SDS011;4201;48.754;8.864;2022-08-21T03:22:53;11.30;;;5.27;;
8327;SDS011;4201;48.754;8.864;2022-08-21T03:25:19;7.27;;;4.87;;
8327;SDS011;4201;48.754;8.864;2022-08-21T03:27:46;9.80;;;5.47;;
8327;SDS011;4201;48.754;8.864;2022-08-21T03:30:14;9.90;;;5.70;;
8327;SDS011;4201;48.754;8.864;2022-08-21T03:32:41;10.50;;;5.77;;
8327;SDS011;4201;48.754;8.864;2022-08-21T03:35:08;8.27;;;5.90;;
8327;SDS011;4201;48.754;8.864;2022-08-21T03:37:34;9.70;;;5.70;;
8327;SDS011;4201;48.754;8.864;2022-08-21T03:40:02;9.03;;;5.63;;
8327;SDS011;4201;48.754;8.864;2022-08-21T03:42:29;8.73;;;5.57;;
8327;SDS011;4201;48.754;8.864;2022-08-21T03:44:55;7.23;;;4.80;;
8327;SDS011;4201;48.754;8.864;2022-08-21T03:47:21;6.20;;;4.77;;
8327;SDS011;4201;48.754;8.864;2022-08-21T03:49:47;8.80;;;4.90;;
8327;SDS011;4201;48.754;8.864;2022-08-21T03:52:14;8.97;;;5.50;;
8327;SDS011;4201;48.754;8.864;2022-08-21T03:54:41;9.10;;;5.00;;
8327;SDS011;4201;48.754;8.864;2022-08-21T03:57:08;6.50;;;4.77;;
8327;SDS011;4201;48.754;8.864;2022-08-21T03:59:35;8.87;;;5.90;;
8327;SDS011;4201;48.754;8.864;2022-08-21T04:02:02;8.20;;;5.67;;
8327;SDS011;4201;48.754;8.864;2022-08-21T04:04:29;8.10;;;5.67;;
8327;SDS011;4201;48.754;8.864;2022-08-21T04:06:55;9.40;;;5.70;;
8327;SDS011;4201;48.754;8.864;2022-08-21T04:09:22;10.93;;;5.80;;
8327;SDS011;4201;48.754;8.864;2022-08-21T04:11:49;8.47;;;5.73;;
8327;SDS011;4201;48.754;8.864;2022-08-21T04:14:17;8.30;;;5.53;;
8327;SDS011;4201;48.754;8.864;2022-08-21T04:16:43;11.63;;;6.27;;
8327;SDS011;4201;48.754;8.864;2022-08-21T04:19:10;8.40;;;5.33;;
8327;SDS011;4201;48.754;8.864;2022-08-21T04:21:37;11.17;;;6.23;;
8327;SDS011;4201;48.754;8.864;2022-08-21T04:24:03;10.10;;;6.40;;
8327;SDS011;4201;48.754;8.864;2022-08-21T04:26:30;8.27;;;6.23;;
8327;SDS011;4201;48.754;8.864;2022-08-21T04:28:56;10.30;;;5.87;;
8327;SDS011;4201;48.754;8.864;2022-08-21T04:31:24;8.97;;;6.40;;
8327;SDS011;4201;48.754;8.864;2022-08-21T04:33:50;10.43;;;6.47;;
8327;SDS011;4201;48.754;8.864;2022-08-21T04:36:17;9.60;;;5.67;;
8327;SDS011;4201;48.754;8.864;2022-08-21T04:38:43;8.13;;;5.73;;
8327;SDS011;4201;48.754;8.864;2022-08-21T04:41:09;9.53;;;5.50;;
8327;SDS011;4201;48.754;8.864;2022-08-21T04:43:37;10.50;;;5.97;;
8327;SDS011;4201;48.754;8.864;2022-08-21T04:46:03;8.30;;;5.10;;
8327;SDS011;4201;48.754;8.864;2022-08-21T04:48:31;7.60;;;4.60;;
8327;SDS011;4201;48.754;8.864;2022-08-21T04:50:59;8.40;;;4.67;;
8327;SDS011;4201;48.754;8.864;2022-08-21T04:53:30;9.13;;;5.00;;
8327;SDS011;4201;48.754;8.864;2022-08-21T04:55:57;6.60;;;4.87;;
8327;SDS011;4201;48.754;8.864;2022-08-21T04:58:26;7.90;;;5.07;;
8327;SDS011;4201;48.754;8.864;2022-08-21T05:00:53;9.10;;;5.20;;
8327;SDS011;4201;48.754;8.864;2022-08-21T05:03:20;8.53;;;4.90;;
8327;SDS011;4201;48.754;8.864;2022-08-21T05:05:47;7.97;;;4.83;;
8327;SDS011;4201;48.754;8.864;2022-08-21T05:08:15;8.80;;;4.50;;
8327;SDS011;4201;48.754;8.864;2022-08-21T05:10:42;4.77;;;4.13;;
8327;SDS011;4201;48.754;8.864;2022-08-21T05:13:09;8.43;;;5.17;;
8327;SDS011;4201;48.754;8.864;2022-08-21T05:15:37;8.90;;;5.10;;
8327;SDS011;4201;48.754;8.864;2022-08-21T05:18:03;7.50;;;4.70;;
8327;SDS011;4201;48.754;8.864;2022-08-21T05:20:31;7.87;;;4.90;;
8327;SDS011;4201;48.754;8.864;2022-08-21T05:23:00;7.07;;;4.20;;
8327;SDS011;4201;48.754;8.864;2022-08-21T05:25:27;6.20;;;4.37;;
8327;SDS011;4201;48.754;8.864;2022-08-21T05:27:53;5.80;;;3.10;;
8327;SDS011;4201;48.754;8.864;2022-08-21T05:30:20;7.60;;;4.23;;
8327;SDS011;4201;48.754;8.864;2022-08-21T05:32:46;5.63;;;3.60;;
8327;SDS011;4201;48.754;8.864;2022-08-21T05:35:13;6.60;;;3.67;;
8327;SDS011;4201;48.754;8.864;2022-08-21T05:37:39;6.60;;;4.23;;
8327;SDS011;4201;48.754;8.864;2022-08-21T05:40:08;6.13;;;4.47;;
8327;SDS011;4201;48.754;8.864;2022-08-21T05:42:34;5.97;;;4.00;;
8327;SDS011;4201;48.754;8.864;2022-08-21T05:45:00;7.03;;;3.67;;
8327;SDS011;4201;48.754;8.864;2022-08-21T05:47:26;4.83;;;3.00;;
8327;SDS011;4201;48.754;8.864;2022-08-21T05:49:53;6.07;;;3.67;;
8327;SDS011;4201;48.754;8.864;2022-08-21T05:52:19;6.67;;;4.13;;
8327;SDS011;4201;48.754;8.864;2022-08-21T05:54:45;6.10;;;3.83;;
8327;SDS011;4201;48.754;8.864;2022-08-21T05:57:13;11.73;;;4.23;;
8327;SDS011;4201;48.754;8.864;2022-08-21T05:59:39;9.80;;;3.60;;
8327;SDS011;4201;48.754;8.864;2022-08-21T06:02:05;7.93;;;4.30;;
8327;SDS011;4201;48.754;8.864;2022-08-21T06:04:34;7.53;;;3.97;;
8327;SDS011;4201;48.754;8.864;2022-08-21T06:07:01;5.87;;;3.80;;
8327;SDS011;4201;48.754;8.864;2022-08-21T06:09:27;7.10;;;4.17;;
8327;SDS011;4201;48.754;8.864;2022-08-21T06:11:53;7.13;;;3.80;;
8327;SDS011;4201;48.754;8.864;2022-08-21T06:14:21;6.90;;;3.90;;
8327;SDS011;4201;48.754;8.864;2022-08-21T06:16:47;6.40;;;3.57;;
8327;SDS011;4201;48.754;8.864;2022-08-21T06:19:13;4.97;;;3.60;;
8327;SDS011;4201;48.754;8.864;2022-08-21T06:21:39;6.20;;;4.20;;
8327;SDS011;4201;48.754;8.864;2022-08-21T06:24:06;6.57;;;3.93;;
8327;SDS011;4201;48.754;8.864;2022-08-21T06:26:32;4.70;;;3.50;;
8327;SDS011;4201;48.754;8.864;2022-08-21T06:28:59;6.43;;;3.67;;
8327;SDS011;4201;48.754;8.864;2022-08-21T06:31:27;5.83;;;4.20;;
8327;SDS011;4201;48.754;8.864;2022-08-21T06:33:53;6.90;;;3.37;;
8327;SDS011;4201;48.754;8.864;2022-08-21T06:36:19;6.00;;;4.03;;
8327;SDS011;4201;48.754;8.864;2022-08-21T06:38:46;6.47;;;3.87;;
8327;SDS011;4201;48.754;8.864;2022-08-21T06:41:13;7.20;;;3.90;;
8327;SDS011;4201;48.754;8.864;2022-08-21T06:43:39;7.70;;;3.83;;
8327;SDS011;4201;48.754;8.864;2022-08-21T06:46:05;13.80;;;4.33;;
8327;SDS011;4201;48.754;8.864;2022-08-21T06:48:33;7.70;;;3.87;;
8327;SDS011;4201;48.754;8.864;2022-08-21T06:50:59;7.30;;;3.70;;
8327;SDS011;4201;48.754;8.864;2022-08-21T06:53:26;8.47;;;4.07;;
8327;SDS011;4201;48.754;8.864;2022-08-21T06:55:52;4.87;;;3.30;;
8327;SDS011;4201;48.754;8.864;2022-08-21T06:58:18;5.57;;;3.77;;
8327;SDS011;4201;48.754;8.864;2022-08-21T07:00:47;8.60;;;3.93;;
8327;SDS011;4201;48.754;8.864;2022-08-21T07:03:20;5.90;;;3.60;;
8327;SDS011;4201;48.754;8.864;2022-08-21T07:05:48;10.13;;;3.97;;
8327;SDS011;4201;48.754;8.864;2022-08-21T07:08:14;4.30;;;3.03;;
8327;SDS011;4201;48.754;8.864;2022-08-21T07:10:41;5.20;;;3.40;;
8327;SDS011;4201;48.754;8.864;2022-08-21T07:13:08;9.60;;;3.60;;
8327;SDS011;4201;48.754;8.864;2022-08-21T07:15:34;7.83;;;4.10;;
8327;SDS011;4201;48.754;8.864;2022-08-21T07:18:00;6.20;;;4.20;;
8327;SDS011;4201;48.754;8.864;2022-08-21T07:20:27;6.50;;;4.00;;
8327;SDS011;4201;48.754;8.864;2022-08-21T07:22:54;11.10;;;4.37;;
8327;SDS011;4201;48.754;8.864;2022-08-21T07:25:21;10.40;;;4.20;;
8327;SDS011;4201;48.754;8.864;2022-08-21T07:27:47;11.17;;;4.30;;
8327;SDS011;4201;48.754;8.864;2022-08-21T07:30:14;9.10;;;3.97;;
8327;SDS011;4201;48.754;8.864;2022-08-21T07:32:40;10.73;;;4.40;;
8327;SDS011;4201;48.754;8.864;2022-08-21T07:35:06;7.17;;;4.00;;
8327;SDS011;4201;48.754;8.864;2022-08-21T07:37:33;11.70;;;4.50;;
8327;SDS011;4201;48.754;8.864;2022-08-21T07:40:01;11.93;;;5.00;;
8327;SDS011;4201;48.754;8.864;2022-08-21T07:42:27;10.10;;;5.33;;
8327;SDS011;4201;48.754;8.864;2022-08-21T07:44:54;12.03;;;5.00;;
8327;SDS011;4201;48.754;8.864;2022-08-21T07:47:20;14.10;;;5.67;;
8327;SDS011;4201;48.754;8.864;2022-08-21T07:49:47;15.30;;;5.70;;
8327;SDS011;4201;48.754;8.864;2022-08-21T07:52:13;10.20;;;5.57;;
8327;SDS011;4201;48.754;8.864;2022-08-21T07:54:39;10.07;;;5.47;;
8327;SDS011;4201;48.754;8.864;2022-08-21T07:57:07;6.93;;;4.60;;
8327;SDS011;4201;48.754;8.864;2022-08-21T07:59:33;9.67;;;5.20;;
8327;SDS011;4201;48.754;8.864;2022-08-21T08:01:59;13.60;;;5.83;;
8327;SDS011;4201;48.754;8.864;2022-08-21T08:04:26;9.10;;;4.33;;
8327;SDS011;4201;48.754;8.864;2022-08-21T08:06:52;8.37;;;5.03;;
8327;SDS011;4201;48.754;8.864;2022-08-21T08:09:18;15.40;;;4.90;;
8327;SDS011;4201;48.754;8.864;2022-08-21T08:11:45;10.20;;;5.27;;
8327;SDS011;4201;48.754;8.864;2022-08-21T08:14:12;8.57;;;4.50;;
8327;SDS011;4201;48.754;8.864;2022-08-21T08:16:40;10.27;;;4.60;;
8327;SDS011;4201;48.754;8.864;2022-08-21T08:19:06;5.47;;;3.53;;
8327;SDS011;4201;48.754;8.864;2022-08-21T08:21:32;11.47;;;4.87;;
8327;SDS011;4201;48.754;8.864;2022-08-21T08:23:59;9.53;;;4.73;;
8327;SDS011;4201;48.754;8.864;2022-08-21T08:26:25;6.53;;;4.07;;
8327;SDS011;4201;48.754;8.864;2022-08-21T08:28:52;7.23;;;3.50;;
8327;SDS011;4201;48.754;8.864;2022-08-21T08:31:19;17.03;;;4.80;;
8327;SDS011;4201;48.754;8.864;2022-08-21T08:33:46;10.53;;;4.00;;
8327;SDS011;4201;48.754;8.864;2022-08-21T08:36:12;9.30;;;4.57;;
8327;SDS011;4201;48.754;8.864;2022-08-21T08:38:39;10.57;;;4.27;;
8327;SDS011;4201;48.754;8.864;2022-08-21T08:41:07;10.93;;;4.20;;
8327;SDS011;4201;48.754;8.864;2022-08-21T08:43:38;7.60;;;4.20;;
8327;SDS011;4201;48.754;8.864;2022-08-21T08:46:06;7.37;;;4.47;;
8327;SDS011;4201;48.754;8.864;2022-08-21T08:48:39;8.87;;;4.63;;
8327;SDS011;4201;48.754;8.864;2022-08-21T08:51:07;9.80;;;4.70;;
8327;SDS011;4201;48.754;8.864;2022-08-21T08:53:36;12.03;;;5.80;;
8327;SDS011;4201;48.754;8.864;2022-08-21T08:56:08;9.97;;;4.97;;
8327;SDS011;4201;48.754;8.864;2022-08-21T08:58:37;10.60;;;4.13;;
8327;SDS011;4201;48.754;8.864;2022-08-21T09:01:05;7.53;;;4.80;;
8327;SDS011;4201;48.754;8.864;2022-08-21T09:03:33;8.57;;;4.30;;
8327;SDS011;4201;48.754;8.864;2022-08-21T09:06:03;12.23;;;4.60;;
8327;SDS011;4201;48.754;8.864;2022-08-21T09:08:36;6.90;;;4.00;;
8327;SDS011;4201;48.754;8.864;2022-08-21T09:11:07;9.73;;;4.60;;
8327;SDS011;4201;48.754;8.864;2022-08-21T09:13:41;12.40;;;4.70;;
8327;SDS011;4201;48.754;8.864;2022-08-21T09:16:13;8.70;;;4.27;;
8327;SDS011;4201;48.754;8.864;2022-08-21T09:18:42;8.83;;;4.60;;
8327;SDS011;4201;48.754;8.864;2022-08-21T09:21:15;9.77;;;4.50;;
8327;SDS011;4201;48.754;8.864;2022-08-21T09:23:45;10.37;;;5.00;;
8327;SDS011;4201;48.754;8.864;2022-08-21T09:26:13;8.77;;;4.10;;
8327;SDS011;4201;48.754;8.864;2022-08-21T09:28:40;6.90;;;4.13;;
8327;SDS011;4201;48.754;8.864;2022-08-21T09:31:08;8.33;;;3.53;;
8327;SDS011;4201;48.754;8.864;2022-08-21T09:33:37;7.60;;;4.37;;
8327;SDS011;4201;48.754;8.864;2022-08-21T09:36:03;10.93;;;3.57;;
8327;SDS011;4201;48.754;8.864;2022-08-21T09:38:32;10.07;;;4.10;;
8327;SDS011;4201;48.754;8.864;2022-08-21T09:40:59;15.87;;;5.40;;
8327;SDS011;4201;48.754;8.864;2022-08-21T09:43:26;8.50;;;4.10;;
8327;SDS011;4201;48.754;8.864;2022-08-21T09:48:41;9.00;;;4.20;;
8327;SDS011;4201;48.754;8.864;2022-08-21T09:51:08;9.60;;;3.43;;
8327;SDS011;4201;48.754;8.864;2022-08-21T09:53:38;10.60;;;3.70;;
8327;SDS011;4201;48.754;8.864;2022-08-21T09:56:16;5.40;;;3.47;;
8327;SDS011;4201;48.754;8.864;2022-08-21T09:59:00;10.43;;;4.50;;
8327;SDS011;4201;48.754;8.864;2022-08-21T10:01:26;9.80;;;4.10;;
8327;SDS011;4201;48.754;8.864;2022-08-21T10:04:01;7.67;;;3.33;;
8327;SDS011;4201;48.754;8.864;2022-08-21T10:06:28;8.40;;;4.60;;
8327;SDS011;4201;48.754;8.864;2022-08-21T10:09:04;15.90;;;4.43;;
8327;SDS011;4201;48.754;8.864;2022-08-21T10:11:30;7.73;;;4.53;;
8327;SDS011;4201;48.754;8.864;2022-08-21T10:13:59;11.83;;;4.60;;
8327;SDS011;4201;48.754;8.864;2022-08-21T10:16:30;7.40;;;3.73;;
8327;SDS011;4201;48.754;8.864;2022-08-21T10:19:01;9.70;;;3.90;;
8327;SDS011;4201;48.754;8.864;2022-08-21T10:21:30;6.60;;;3.87;;
8327;SDS011;4201;48.754;8.864;2022-08-21T10:24:00;6.97;;;3.50;;
8327;SDS011;4201;48.754;8.864;2022-08-21T10:26:35;9.17;;;4.70;;
8327;SDS011;4201;48.754;8.864;2022-08-21T10:29:09;9.73;;;4.27;;
8327;SDS011;4201;48.754;8.864;2022-08-21T10:31:42;6.80;;;3.37;;
8327;SDS011;4201;48.754;8.864;2022-08-21T10:34:13;10.20;;;4.50;;
8327;SDS011;4201;48.754;8.864;2022-08-21T10:36:43;6.23;;;4.10;;
8327;SDS011;4201;48.754;8.864;2022-08-21T10:39:13;5.77;;;3.80;;
8327;SDS011;4201;48.754;8.864;2022-08-21T10:41:47;9.40;;;4.00;;
8327;SDS011;4201;48.754;8.864;2022-08-21T10:44:20;6.33;;;3.40;;
8327;SDS011;4201;48.754;8.864;2022-08-21T10:46:50;8.03;;;4.07;;
8327;SDS011;4201;48.754;8.864;2022-08-21T10:49:21;5.10;;;3.03;;
8327;SDS011;4201;48.754;8.864;2022-08-21T10:51:50;8.43;;;3.77;;
8327;SDS011;4201;48.754;8.864;2022-08-21T10:54:19;7.33;;;4.00;;
8327;SDS011;4201;48.754;8.864;2022-08-21T10:56:50;7.00;;;4.23;;
8327;SDS011;4201;48.754;8.864;2022-08-21T10:59:22;10.13;;;3.50;;
8327;SDS011;4201;48.754;8.864;2022-08-21T11:01:52;6.47;;;3.63;;
8327;SDS011;4201;48.754;8.864;2022-08-21T11:04:19;7.63;;;3.70;;
8327;SDS011;4201;48.754;8.864;2022-08-21T11:06:47;10.10;;;4.90;;
8327;SDS011;4201;48.754;8.864;2022-08-21T11:09:15;6.70;;;3.57;;
8327;SDS011;4201;48.754;8.864;2022-08-21T11:11:44;10.30;;;4.13;;
8327;SDS011;4201;48.754;8.864;2022-08-21T11:14:13;5.50;;;3.53;;
8327;SDS011;4201;48.754;8.864;2022-08-21T11:16:45;4.67;;;3.40;;
8327;SDS011;4201;48.754;8.864;2022-08-21T11:19:15;9.47;;;4.27;;
8327;SDS011;4201;48.754;8.864;2022-08-21T11:21:45;7.37;;;3.83;;
8327;SDS011;4201;48.754;8.864;2022-08-21T11:24:17;11.73;;;4.00;;
8327;SDS011;4201;48.754;8.864;2022-08-21T11:26:46;5.30;;;3.70;;
8327;SDS011;4201;48.754;8.864;2022-08-21T11:29:16;5.00;;;2.93;;
8327;SDS011;4201;48.754;8.864;2022-08-21T11:31:47;5.57;;;3.03;;
8327;SDS011;4201;48.754;8.864;2022-08-21T11:34:18;4.83;;;3.47;;
8327;SDS011;4201;48.754;8.864;2022-08-21T11:36:50;7.93;;;3.70;;
8327;SDS011;4201;48.754;8.864;2022-08-21T11:39:19;8.83;;;3.47;;
8327;SDS011;4201;48.754;8.864;2022-08-21T11:41:51;7.63;;;3.97;;
8327;SDS011;4201;48.754;8.864;2022-08-21T11:44:24;6.20;;;3.93;;
8327;SDS011;4201;48.754;8.864;2022-08-21T11:46:57;8.40;;;4.30;;
8327;SDS011;4201;48.754;8.864;2022-08-21T11:49:28;9.40;;;3.67;;
8327;SDS011;4201;48.754;8.864;2022-08-21T11:51:57;7.00;;;3.60;;
8327;SDS011;4201;48.754;8.864;2022-08-21T11:54:29;5.13;;;3.27;;
8327;SDS011;4201;48.754;8.864;2022-08-21T11:56:59;10.30;;;4.50;;
8327;SDS011;4201;48.754;8.864;2022-08-21T11:59:29;7.07;;;3.30;;
8327;SDS011;4201;48.754;8.864;2022-08-21T12:01:58;6.07;;;3.10;;
8327;SDS011;4201;48.754;8.864;2022-08-21T12:04:26;8.57;;;3.67;;
8327;SDS011;4201;48.754;8.864;2022-08-21T12:06:53;8.53;;;3.97;;
8327;SDS011;4201;48.754;8.864;2022-08-21T12:09:30;7.77;;;4.27;;
8327;SDS011;4201;48.754;8.864;2022-08-21T12:12:00;9.27;;;3.30;;
8327;SDS011;4201;48.754;8.864;2022-08-21T12:14:36;9.37;;;4.60;;
8327;SDS011;4201;48.754;8.864;2022-08-21T12:17:04;5.97;;;3.57;;
8327;SDS011;4201;48.754;8.864;2022-08-21T12:19:31;5.17;;;3.40;;
8327;SDS011;4201;48.754;8.864;2022-08-21T12:21:58;7.97;;;3.70;;
8327;SDS011;4201;48.754;8.864;2022-08-21T12:24:31;6.30;;;3.67;;
8327;SDS011;4201;48.754;8.864;2022-08-21T12:26:58;6.53;;;3.50;;
8327;SDS011;4201;48.754;8.864;2022-08-21T12:29:26;8.63;;;3.80;;
8327;SDS011;4201;48.754;8.864;2022-08-21T12:31:56;8.97;;;3.40;;
8327;SDS011;4201;48.754;8.864;2022-08-21T12:34:23;5.60;;;3.40;;
8327;SDS011;4201;48.754;8.864;2022-08-21T12:36:53;6.00;;;3.00;;
8327;SDS011;4201;48.754;8.864;2022-08-21T12:39:22;6.97;;;3.50;;
8327;SDS011;4201;48.754;8.864;2022-08-21T12:41:51;7.17;;;3.53;;
8327;SDS011;4201;48.754;8.864;2022-08-21T12:44:21;5.00;;;3.10;;
8327;SDS011;4201;48.754;8.864;2022-08-21T12:46:50;6.27;;;3.20;;
8327;SDS011;4201;48.754;8.864;2022-08-21T12:49:21;7.13;;;3.50;;
8327;SDS011;4201;48.754;8.864;2022-08-21T12:51:52;5.87;;;3.90;;
8327;SDS011;4201;48.754;8.864;2022-08-21T12:54:24;9.07;;;4.40;;
8327;SDS011;4201;48.754;8.864;2022-08-21T12:56:58;6.70;;;3.43;;
8327;SDS011;4201;48.754;8.864;2022-08-21T12:59:24;6.83;;;3.13;;
8327;SDS011;4201;48.754;8.864;2022-08-21T13:01:51;10.70;;;3.97;;
8327;SDS011;4201;48.754;8.864;2022-08-21T13:04:22;8.20;;;3.60;;
8327;SDS011;4201;48.754;8.864;2022-08-21T13:06:51;5.67;;;2.90;;
8327;SDS011;4201;48.754;8.864;2022-08-21T13:09:18;6.87;;;4.00;;
8327;SDS011;4201;48.754;8.864;2022-08-21T13:11:46;7.03;;;3.93;;
8327;SDS011;4201;48.754;8.864;2022-08-21T13:14:15;8.10;;;4.23;;
8327;SDS011;4201;48.754;8.864;2022-08-21T13:16:43;6.20;;;3.50;;
8327;SDS011;4201;48.754;8.864;2022-08-21T13:19:11;6.10;;;3.37;;
8327;SDS011;4201;48.754;8.864;2022-08-21T13:21:41;6.40;;;3.20;;
8327;SDS011;4201;48.754;8.864;2022-08-21T13:24:12;11.20;;;4.30;;
8327;SDS011;4201;48.754;8.864;2022-08-21T13:26:39;6.93;;;2.93;;
8327;SDS011;4201;48.754;8.864;2022-08-21T13:29:06;8.90;;;3.63;;
8327;SDS011;4201;48.754;8.864;2022-08-21T13:31:33;8.23;;;3.40;;
8327;SDS011;4201;48.754;8.864;2022-08-21T13:33:59;6.93;;;3.30;;
8327;SDS011;4201;48.754;8.864;2022-08-21T13:36:26;5.60;;;3.90;;
8327;SDS011;4201;48.754;8.864;2022-08-21T13:38:56;5.80;;;3.33;;
8327;SDS011;4201;48.754;8.864;2022-08-21T13:41:24;5.97;;;3.27;;
8327;SDS011;4201;48.754;8.864;2022-08-21T13:43:56;7.50;;;3.90;;
8327;SDS011;4201;48.754;8.864;2022-08-21T13:46:23;8.13;;;4.10;;
8327;SDS011;4201;48.754;8.864;2022-08-21T13:48:50;6.47;;;4.23;;
8327;SDS011;4201;48.754;8.864;2022-08-21T13:51:16;7.20;;;4.20;;
8327;SDS011;4201;48.754;8.864;2022-08-21T13:53:45;6.17;;;3.57;;
8327;SDS011;4201;48.754;8.864;2022-08-21T13:56:22;8.40;;;3.70;;
8327;SDS011;4201;48.754;8.864;2022-08-21T13:58:49;7.13;;;3.40;;
8327;SDS011;4201;48.754;8.864;2022-08-21T14:01:17;8.77;;;4.07;;
8327;SDS011;4201;48.754;8.864;2022-08-21T14:03:45;6.03;;;4.03;;
8327;SDS011;4201;48.754;8.864;2022-08-21T14:06:12;4.00;;;3.20;;
8327;SDS011;4201;48.754;8.864;2022-08-21T14:08:40;5.50;;;4.00;;
8327;SDS011;4201;48.754;8.864;2022-08-21T14:11:09;9.57;;;4.00;;
8327;SDS011;4201;48.754;8.864;2022-08-21T14:13:39;9.30;;;4.10;;
8327;SDS011;4201;48.754;8.864;2022-08-21T14:16:10;8.67;;;4.00;;
8327;SDS011;4201;48.754;8.864;2022-08-21T14:18:42;7.40;;;3.80;;
8327;SDS011;4201;48.754;8.864;2022-08-21T14:21:09;7.27;;;3.23;;
8327;SDS011;4201;48.754;8.864;2022-08-21T14:23:36;11.93;;;4.40;;
8327;SDS011;4201;48.754;8.864;2022-08-21T14:26:03;5.33;;;3.60;;
8327;SDS011;4201;48.754;8.864;2022-08-21T14:28:31;6.90;;;3.83;;
8327;SDS011;4201;48.754;8.864;2022-08-21T14:30:59;8.47;;;3.67;;
8327;SDS011;4201;48.754;8.864;2022-08-21T14:33:37;6.10;;;3.50;;
8327;SDS011;4201;48.754;8.864;2022-08-21T14:36:03;8.67;;;3.63;;
8327;SDS011;4201;48.754;8.864;2022-08-21T14:38:29;7.77;;;3.63;;
8327;SDS011;4201;48.754;8.864;2022-08-21T14:40:58;7.40;;;3.77;;
8327;SDS011;4201;48.754;8.864;2022-08-21T14:43:25;8.27;;;3.60;;
8327;SDS011;4201;48.754;8.864;2022-08-21T14:45:51;8.97;;;4.10;;
8327;SDS011;4201;48.754;8.864;2022-08-21T14:48:19;9.80;;;3.87;;
8327;SDS011;4201;48.754;8.864;2022-08-21T14:50:45;8.27;;;4.23;;
8327;SDS011;4201;48.754;8.864;2022-08-21T14:53:12;8.07;;;3.80;;
8327;SDS011;4201;48.754;8.864;2022-08-21T14:55:39;7.93;;;4.60;;
8327;SDS011;4201;48.754;8.864;2022-08-21T14:58:23;6.77;;;3.73;;
8327;SDS011;4201;48.754;8.864;2022-08-21T15:00:50;6.67;;;4.13;;
8327;SDS011;4201;48.754;8.864;2022-08-21T15:03:17;7.70;;;3.63;;
8327;SDS011;4201;48.754;8.864;2022-08-21T15:05:45;7.77;;;4.10;;
8327;SDS011;4201;48.754;8.864;2022-08-21T15:08:11;7.80;;;3.80;;
8327;SDS011;4201;48.754;8.864;2022-08-21T15:10:37;8.53;;;3.63;;
8327;SDS011;4201;48.754;8.864;2022-08-21T15:13:03;6.50;;;3.63;;
8327;SDS011;4201;48.754;8.864;2022-08-21T15:15:30;5.80;;;3.50;;
8327;SDS011;4201;48.754;8.864;2022-08-21T15:17:58;6.10;;;3.40;;
8327;SDS011;4201;48.754;8.864;2022-08-21T15:20:24;11.17;;;5.77;;